< < Back
Terminal Aerodrome Forecast


Current Version              Previous Versions:   1  2  3  4  5  6  7  8  9  

Terminal Aerodrome Forecast

136
FTUS44 KMOB 131727
TAFMOB
TAF
KMOB 131727Z 1318/1418 36007KT P6SM SKC
     FM140100 01007KT P6SM SKC
     FM141500 10009KT P6SM SKC=

Latest METAR

457
SAUS80 KWBC 140800
MTRMOB
METAR KMOB 140756Z 07005KT 10SM CLR 03/M05 A3028 RMK AO2 SLP254
T00331050


USA.gov is the U.S. government's official web portal to all federal, state and local government web resources and services.